Terminal Aerodrome Forecast
Issued by NWS

Home | Current Version | Previous Version | Text Only | Print | Product List | Glossary On
Versions: 1 2 3 4 5 6 7 8 9 10 11 12 13 14 15 16 17 18 19
742
FTAK31 PAJN 251738
TAFAPG
TAF
PAPG 251738Z 2518/2618 00000KT 4SM -SNRA BKN012 OVC025
     FM251900 VRB05KT P6SM SCT012 BKN025
     FM252100 VRB05KT P6SM FEW030
     FM261700 00000KT 1 1/2SM -SN BR OVC018 WS020/17025KT
      AMD LTD TO CLD VIS AND WIND 2607/2615=

USA.gov is the U.S. government's official web portal to all federal, state and local government web resources and services.